createdAt,value
2018-01-26T00:02:08.745Z,12.80
2018-01-26T00:04:36.199Z,12.50
2018-01-26T00:07:03.646Z,12.23
2018-01-26T00:09:31.090Z,11.13
2018-01-26T00:11:58.547Z,10.90
2018-01-26T00:14:26.000Z,11.33
2018-01-26T00:16:54.235Z,12.83
2018-01-26T00:19:21.671Z,13.30
2018-01-26T00:21:49.126Z,15.10
2018-01-26T00:24:16.578Z,13.10
2018-01-26T00:26:44.039Z,12.60
2018-01-26T00:29:11.482Z,12.87
2018-01-26T00:31:38.934Z,12.60
2018-01-26T00:34:06.395Z,11.63
2018-01-26T00:36:33.861Z,11.50
2018-01-26T00:39:01.314Z,12.03
2018-01-26T00:41:28.762Z,12.67
2018-01-26T00:43:56.214Z,12.40
2018-01-26T00:46:23.663Z,11.10
2018-01-26T00:48:51.127Z,11.27
2018-01-26T00:51:18.586Z,10.80
2018-01-26T00:53:46.040Z,10.93
2018-01-26T00:56:13.490Z,10.60
2018-01-26T00:58:40.955Z,10.57
2018-01-26T01:01:08.413Z,10.93
2018-01-26T01:03:35.867Z,11.47
2018-01-26T01:06:03.323Z,10.20
2018-01-26T01:08:30.778Z,11.50
2018-01-26T01:10:58.235Z,10.03
2018-01-26T01:13:25.694Z,10.53
2018-01-26T01:15:53.152Z,10.10
2018-01-26T01:18:20.607Z,9.37
2018-01-26T01:20:48.056Z,10.60
2018-01-26T01:23:15.521Z,9.37
2018-01-26T01:25:42.968Z,9.20
2018-01-26T01:28:10.422Z,9.30
2018-01-26T01:30:37.866Z,9.83
2018-01-26T01:33:05.326Z,10.87
2018-01-26T01:35:32.773Z,10.37
2018-01-26T01:38:00.238Z,10.80
2018-01-26T01:40:27.689Z,10.93
2018-01-26T01:42:55.145Z,11.27
2018-01-26T01:45:22.608Z,12.17
2018-01-26T01:47:50.063Z,12.13
2018-01-26T01:50:17.515Z,11.50
2018-01-26T01:52:44.971Z,11.23
2018-01-26T01:55:12.428Z,10.93
2018-01-26T01:57:39.894Z,11.63
2018-01-26T02:00:07.343Z,11.40
2018-01-26T02:02:34.795Z,10.83
2018-01-26T02:05:02.250Z,9.53
2018-01-26T02:07:29.716Z,10.60
2018-01-26T02:09:57.163Z,11.07
2018-01-26T02:12:24.603Z,9.73
2018-01-26T02:14:52.053Z,10.20
2018-01-26T02:17:19.500Z,9.23
2018-01-26T02:19:47.718Z,11.07
2018-01-26T02:22:15.166Z,10.43
2018-01-26T02:25:00.311Z,10.60
2018-01-26T02:27:27.762Z,10.97
2018-01-26T02:29:55.210Z,10.37
2018-01-26T02:32:23.422Z,11.40
2018-01-26T02:34:50.876Z,10.70
2018-01-26T02:37:18.313Z,11.10
2018-01-26T02:39:45.779Z,10.63
2018-01-26T02:42:13.214Z,11.30
2018-01-26T02:44:41.439Z,11.53
2018-01-26T02:47:08.935Z,10.30
2018-01-26T02:49:37.155Z,11.43
2018-01-26T02:52:04.605Z,12.07
2018-01-26T02:54:32.067Z,11.50
2018-01-26T02:56:59.515Z,10.90
2018-01-26T02:59:26.978Z,10.30
2018-01-26T03:01:54.430Z,11.73
2018-01-26T03:04:21.887Z,11.27
2018-01-26T03:06:49.339Z,11.00
2018-01-26T03:09:16.802Z,10.43
2018-01-26T03:11:44.255Z,12.70
2018-01-26T03:14:11.712Z,11.57
2018-01-26T03:16:39.161Z,13.10
2018-01-26T03:19:06.631Z,12.03
2018-01-26T03:21:34.081Z,12.30
2018-01-26T03:24:01.536Z,10.93
2018-01-26T03:26:29.030Z,11.23
2018-01-26T03:28:56.483Z,11.87
2018-01-26T03:31:23.944Z,11.30
2018-01-26T03:33:51.382Z,11.60
2018-01-26T03:36:18.839Z,11.60
2018-01-26T03:38:46.290Z,10.83
2018-01-26T03:41:13.747Z,11.30
2018-01-26T03:43:41.195Z,10.47
2018-01-26T03:46:08.650Z,10.80
2018-01-26T03:48:36.099Z,10.60
2018-01-26T03:51:03.550Z,10.90
2018-01-26T03:53:31.011Z,10.93
2018-01-26T03:55:58.466Z,11.40
2018-01-26T03:58:25.922Z,10.80
2018-01-26T04:00:53.379Z,10.10
2018-01-26T04:03:20.825Z,11.47
2018-01-26T04:05:48.281Z,10.70
2018-01-26T04:08:15.719Z,11.20
2018-01-26T04:10:43.191Z,11.57
2018-01-26T04:13:11.386Z,11.40
2018-01-26T04:15:38.847Z,12.50
2018-01-26T04:18:06.291Z,11.40
2018-01-26T04:20:33.747Z,10.77
2018-01-26T04:23:01.211Z,11.70
2018-01-26T04:25:28.667Z,11.07
2018-01-26T04:27:56.110Z,11.00
2018-01-26T04:30:23.575Z,10.93
2018-01-26T04:32:51.032Z,14.03
2018-01-26T04:35:18.488Z,12.40
2018-01-26T04:37:45.948Z,11.90
2018-01-26T04:40:13.398Z,11.63
2018-01-26T04:42:40.856Z,11.90
2018-01-26T04:45:08.310Z,11.40
2018-01-26T04:47:35.771Z,12.27
2018-01-26T04:50:03.227Z,12.53
2018-01-26T04:52:30.683Z,12.00
2018-01-26T04:54:58.143Z,14.00
2018-01-26T04:57:25.595Z,13.43
2018-01-26T04:59:53.051Z,13.83
2018-01-26T05:02:20.521Z,12.83
2018-01-26T05:04:47.955Z,14.33
2018-01-26T05:07:15.410Z,14.80
2018-01-26T05:09:42.842Z,14.33
2018-01-26T05:12:11.059Z,16.07
2018-01-26T05:14:38.502Z,14.67
2018-01-26T05:17:05.962Z,14.97
2018-01-26T05:19:33.423Z,16.40
2018-01-26T05:22:00.870Z,15.40
2018-01-26T05:24:28.331Z,14.37
2018-01-26T05:26:55.788Z,15.63
2018-01-26T05:29:23.237Z,14.93
2018-01-26T05:31:50.682Z,15.60
2018-01-26T05:34:18.125Z,15.30
2018-01-26T05:36:46.366Z,16.87
2018-01-26T05:39:13.828Z,16.40
2018-01-26T05:41:41.279Z,15.80
2018-01-26T05:44:08.733Z,16.30
2018-01-26T05:46:36.174Z,16.00
2018-01-26T05:49:03.623Z,15.93
2018-01-26T05:51:31.073Z,14.90
2018-01-26T05:53:58.523Z,15.53
2018-01-26T05:56:25.984Z,14.83
2018-01-26T05:58:53.437Z,15.37
2018-01-26T06:01:20.892Z,15.27
2018-01-26T06:03:48.353Z,16.73
2018-01-26T06:06:15.808Z,18.10
2018-01-26T06:08:43.264Z,16.27
2018-01-26T06:11:10.716Z,17.23
2018-01-26T06:13:38.174Z,16.93
2018-01-26T06:16:05.615Z,16.20
2018-01-26T06:18:33.066Z,15.53
2018-01-26T06:21:00.515Z,14.77
2018-01-26T06:23:28.740Z,15.60
2018-01-26T06:25:58.194Z,16.67
2018-01-26T06:28:25.651Z,17.33
2018-01-26T06:30:53.094Z,15.90
2018-01-26T06:33:21.319Z,16.43
2018-01-26T06:35:48.775Z,16.87
2018-01-26T06:38:16.231Z,15.70
2018-01-26T06:40:43.687Z,15.73
2018-01-26T06:43:11.142Z,17.97
2018-01-26T06:45:38.586Z,16.97
2018-01-26T06:48:06.044Z,15.10
2018-01-26T06:50:33.499Z,16.73
2018-01-26T06:53:00.954Z,17.63
2018-01-26T06:55:28.459Z,16.20
2018-01-26T06:57:56.726Z,16.13
2018-01-26T07:00:24.179Z,16.20
2018-01-26T07:02:51.626Z,16.47
2018-01-26T07:05:19.078Z,16.30
2018-01-26T07:07:46.534Z,16.60
2018-01-26T07:10:13.986Z,16.70
2018-01-26T07:12:41.439Z,16.17
2018-01-26T07:15:08.900Z,15.17
2018-01-26T07:17:36.334Z,14.33
2018-01-26T07:20:03.796Z,14.00
2018-01-26T07:22:31.251Z,15.50
2018-01-26T07:24:58.831Z,15.90
2018-01-26T07:27:26.701Z,15.77
2018-01-26T07:29:54.142Z,16.07
2018-01-26T07:32:21.592Z,18.33
2018-01-26T07:34:49.059Z,22.47
2018-01-26T07:40:10.046Z,17.70
2018-01-26T07:42:37.478Z,18.40
2018-01-26T07:45:04.934Z,16.83
2018-01-26T07:47:33.151Z,16.13
2018-01-26T07:50:00.605Z,16.03
2018-01-26T07:52:28.951Z,16.20
2018-01-26T07:54:57.171Z,14.70
2018-01-26T07:57:24.621Z,15.00
2018-01-26T07:59:52.826Z,16.57
2018-01-26T08:02:20.279Z,18.40
2018-01-26T08:04:47.722Z,13.20
2018-01-26T08:07:15.183Z,14.40
2018-01-26T08:09:42.635Z,14.70
2018-01-26T08:12:10.080Z,14.37
2018-01-26T08:14:37.530Z,14.33
2018-01-26T08:17:04.984Z,14.50
2018-01-26T08:19:32.450Z,15.50
2018-01-26T08:21:59.910Z,17.07
2018-01-26T08:24:27.376Z,19.70
2018-01-26T08:26:54.823Z,18.80
2018-01-26T08:29:22.269Z,19.50
2018-01-26T08:31:49.716Z,17.77
2018-01-26T08:34:17.167Z,16.97
2018-01-26T08:36:44.610Z,17.43
2018-01-26T08:39:12.060Z,16.70
2018-01-26T08:41:39.506Z,16.40
2018-01-26T08:44:07.714Z,17.60
2018-01-26T08:46:35.292Z,15.80
2018-01-26T08:49:02.793Z,16.23
2018-01-26T08:51:31.028Z,14.63
2018-01-26T08:53:58.483Z,14.70
2018-01-26T08:56:25.939Z,14.63
2018-01-26T08:58:53.383Z,15.13
2018-01-26T09:01:20.843Z,14.80
2018-01-26T09:03:48.286Z,15.07
2018-01-26T09:06:15.738Z,15.73
2018-01-26T09:08:43.227Z,15.47
2018-01-26T09:11:10.691Z,15.27
2018-01-26T09:13:38.139Z,14.50
2018-01-26T09:16:05.591Z,16.40
2018-01-26T09:18:33.058Z,18.70
2018-01-26T09:21:00.504Z,15.70
2018-01-26T09:23:27.962Z,14.80
2018-01-26T09:25:55.473Z,17.70
2018-01-26T09:28:22.920Z,18.20
2018-01-26T09:30:51.140Z,18.63
2018-01-26T09:33:18.594Z,18.90
2018-01-26T09:35:46.034Z,18.30
2018-01-26T09:38:13.494Z,17.97
2018-01-26T09:40:40.947Z,18.13
2018-01-26T09:43:08.403Z,17.83
2018-01-26T09:45:35.858Z,19.10
2018-01-26T09:48:03.322Z,17.07
2018-01-26T09:50:30.771Z,18.40
2018-01-26T09:52:58.229Z,20.33
2018-01-26T09:55:25.683Z,23.10
2018-01-26T09:57:53.141Z,19.80
2018-01-26T10:00:20.596Z,20.03
2018-01-26T10:02:48.053Z,16.30
2018-01-26T10:05:15.506Z,16.17
2018-01-26T10:07:43.722Z,12.83
2018-01-26T10:10:11.175Z,8.87
2018-01-26T10:12:38.618Z,6.47
2018-01-26T10:15:06.058Z,6.47
2018-01-26T10:17:33.506Z,7.33
2018-01-26T10:20:00.943Z,5.70
2018-01-26T10:22:28.387Z,5.30
2018-01-26T10:24:56.605Z,5.77
2018-01-26T10:27:24.046Z,4.60
2018-01-26T10:29:51.491Z,5.27
2018-01-26T10:32:18.939Z,5.10
2018-01-26T10:34:46.378Z,6.00
2018-01-26T10:37:14.592Z,5.60
2018-01-26T10:39:42.031Z,5.73
2018-01-26T10:42:09.474Z,5.43
2018-01-26T10:44:36.910Z,8.17
2018-01-26T10:47:04.370Z,5.97
2018-01-26T10:49:32.588Z,5.00
2018-01-26T10:52:00.040Z,5.23
2018-01-26T10:54:27.503Z,5.37
2018-01-26T10:56:54.998Z,5.10
2018-01-26T10:59:22.450Z,5.40
2018-01-26T11:01:49.886Z,5.10
2018-01-26T11:04:17.343Z,4.37
2018-01-26T11:06:44.782Z,4.70
2018-01-26T11:09:12.238Z,4.90
2018-01-26T11:11:39.675Z,4.60
2018-01-26T11:14:07.127Z,4.80
2018-01-26T11:16:35.528Z,4.80
2018-01-26T11:19:02.978Z,4.80
2018-01-26T11:21:30.418Z,4.73
2018-01-26T11:23:57.858Z,4.57
2018-01-26T11:26:25.303Z,4.57
2018-01-26T11:28:52.748Z,4.77
2018-01-26T11:31:20.196Z,5.47
2018-01-26T11:33:47.651Z,5.07
2018-01-26T11:36:15.085Z,4.67
2018-01-26T11:38:42.527Z,5.47
2018-01-26T11:41:09.966Z,5.20
2018-01-26T11:43:37.416Z,5.20
2018-01-26T11:46:05.631Z,5.13
2018-01-26T11:48:33.083Z,5.17
2018-01-26T11:51:00.519Z,4.30
2018-01-26T11:53:27.961Z,4.20
2018-01-26T11:55:56.166Z,4.80
2018-01-26T11:58:23.624Z,5.13
2018-01-26T12:00:51.077Z,4.80
2018-01-26T12:03:18.510Z,4.60
2018-01-26T12:05:45.958Z,5.60
2018-01-26T12:08:14.162Z,5.07
2018-01-26T12:10:41.624Z,4.17
2018-01-26T12:13:09.062Z,4.50
2018-01-26T12:15:36.536Z,4.50
2018-01-26T12:18:03.991Z,4.83
2018-01-26T12:20:31.459Z,7.27
2018-01-26T12:22:58.904Z,6.30
2018-01-26T12:25:26.698Z,5.90
2018-01-26T12:27:54.452Z,5.53
2018-01-26T12:30:22.225Z,5.67
2018-01-26T12:32:49.985Z,6.40
2018-01-26T12:35:17.737Z,6.50
2018-01-26T12:37:45.216Z,6.50
2018-01-26T12:40:12.719Z,7.20
2018-01-26T12:42:40.212Z,6.47
2018-01-26T12:45:07.714Z,5.50
2018-01-26T12:47:35.210Z,4.23
2018-01-26T12:50:02.711Z,5.07
2018-01-26T12:52:30.203Z,5.37
2018-01-26T12:54:57.646Z,4.63
2018-01-26T12:57:25.906Z,4.37
2018-01-26T12:59:53.398Z,4.40
2018-01-26T13:02:20.895Z,3.77
2018-01-26T13:04:48.340Z,2.50
2018-01-26T13:07:15.846Z,4.63
2018-01-26T13:09:44.105Z,4.23
2018-01-26T13:12:11.576Z,4.47
2018-01-26T13:14:39.855Z,3.90
2018-01-26T13:17:08.106Z,3.57
2018-01-26T13:19:35.551Z,4.03
2018-01-26T13:22:03.046Z,4.00
2018-01-26T13:24:31.316Z,3.57
2018-01-26T13:26:59.578Z,4.70
2018-01-26T13:29:27.053Z,4.40
2018-01-26T13:31:55.319Z,4.13
2018-01-26T13:34:23.583Z,3.27
2018-01-26T13:36:51.092Z,4.50
2018-01-26T13:39:18.578Z,4.50
2018-01-26T13:41:46.022Z,4.10
2018-01-26T13:44:13.467Z,4.87
2018-01-26T13:46:40.915Z,5.00
2018-01-26T13:49:08.355Z,4.03
2018-01-26T13:51:35.800Z,3.87
2018-01-26T13:54:04.990Z,3.33
2018-01-26T13:56:33.223Z,3.33
2018-01-26T13:59:00.680Z,3.30
2018-01-26T14:01:28.135Z,2.60
2018-01-26T14:03:55.573Z,2.67
2018-01-26T14:06:23.022Z,3.70
2018-01-26T14:08:50.949Z,3.17
2018-01-26T14:11:18.491Z,3.00
2018-01-26T14:13:58.320Z,3.60
2018-01-26T14:16:25.766Z,3.40
2018-01-26T14:18:53.207Z,3.47
2018-01-26T14:21:20.659Z,4.13
2018-01-26T14:23:48.095Z,3.90
2018-01-26T14:26:16.311Z,3.80
2018-01-26T14:28:43.747Z,4.13
2018-01-26T14:31:11.359Z,3.37
2018-01-26T14:33:39.586Z,3.73
2018-01-26T14:36:07.046Z,3.67
2018-01-26T14:38:34.495Z,3.67
2018-01-26T14:41:01.927Z,3.70
2018-01-26T14:43:29.371Z,4.30
2018-01-26T14:45:57.594Z,4.77
2018-01-26T14:48:25.040Z,4.60
2018-01-26T14:50:52.499Z,6.57
2018-01-26T14:53:19.950Z,5.30
2018-01-26T14:55:47.394Z,5.67
2018-01-26T14:58:14.846Z,5.20
2018-01-26T15:00:43.207Z,4.43
2018-01-26T15:03:12.521Z,4.40
2018-01-26T15:05:40.079Z,4.43
2018-01-26T15:08:07.615Z,3.90
2018-01-26T15:10:36.462Z,4.50
2018-01-26T15:13:03.898Z,4.70
2018-01-26T15:15:31.342Z,4.70
2018-01-26T15:17:58.796Z,4.60
2018-01-26T15:20:26.232Z,5.03
2018-01-26T15:22:55.471Z,5.33
2018-01-26T15:25:22.913Z,6.13
2018-01-26T15:27:50.366Z,5.77
2018-01-26T15:30:17.802Z,6.80
2018-01-26T15:32:46.018Z,6.77
2018-01-26T15:35:13.459Z,6.77
2018-01-26T15:37:40.935Z,6.70
2018-01-26T15:40:08.379Z,8.10
2018-01-26T15:42:36.150Z,7.43
2018-01-26T15:45:03.888Z,6.27
2018-01-26T15:47:32.398Z,6.17
2018-01-26T15:49:59.911Z,7.60
2018-01-26T15:52:28.128Z,8.20
2018-01-26T15:54:55.793Z,8.80
2018-01-26T15:57:23.282Z,7.97
2018-01-26T15:59:50.765Z,8.50
2018-01-26T16:02:19.024Z,7.87
2018-01-26T16:04:46.509Z,8.70
2018-01-26T16:07:14.774Z,9.57
2018-01-26T16:09:42.268Z,8.57
2018-01-26T16:12:09.719Z,13.67
2018-01-26T16:14:37.230Z,11.33
2018-01-26T16:17:04.718Z,16.23
2018-01-26T16:19:32.154Z,16.70
2018-01-26T16:22:00.426Z,11.27
2018-01-26T16:24:28.642Z,11.50
2018-01-26T16:26:56.139Z,9.97
2018-01-26T16:29:23.638Z,10.23
2018-01-26T16:31:51.123Z,9.00
2018-01-26T16:34:19.389Z,9.60
2018-01-26T16:36:46.869Z,11.00
2018-01-26T16:39:14.374Z,11.80
2018-01-26T16:41:42.666Z,11.67
2018-01-26T16:44:10.154Z,11.73
2018-01-26T16:46:37.654Z,10.10
2018-01-26T16:49:05.143Z,10.47
2018-01-26T16:51:32.625Z,10.40
2018-01-26T16:54:00.115Z,14.50
2018-01-26T16:56:27.596Z,17.00
2018-01-26T16:58:55.867Z,16.77
2018-01-26T17:01:24.157Z,17.20
2018-01-26T17:03:52.414Z,19.67
2018-01-26T17:06:20.227Z,22.10
2018-01-26T17:08:48.014Z,22.13
2018-01-26T17:11:15.782Z,19.00
2018-01-26T17:13:43.220Z,17.77
2018-01-26T17:16:10.787Z,17.47
2018-01-26T17:18:38.260Z,19.30
2018-01-26T17:21:05.708Z,18.67
2018-01-26T17:23:33.217Z,21.20
2018-01-26T17:26:00.662Z,20.67
2018-01-26T17:28:28.874Z,21.87
2018-01-26T17:30:56.393Z,19.03
2018-01-26T17:33:34.669Z,20.67
2018-01-26T17:36:02.170Z,20.63
2018-01-26T17:38:30.382Z,24.27
2018-01-26T17:40:57.887Z,19.77
2018-01-26T17:43:26.167Z,18.20
2018-01-26T17:45:54.383Z,19.13
2018-01-26T17:48:21.828Z,21.53
2018-01-26T17:50:49.279Z,21.70
2018-01-26T17:53:16.809Z,21.93
2018-01-26T17:55:48.261Z,22.33
2018-01-26T17:58:15.724Z,21.63
2018-01-26T18:00:43.267Z,21.77
2018-01-26T18:03:10.723Z,21.97
2018-01-26T18:05:39.078Z,20.60
2018-01-26T18:08:06.619Z,21.10
2018-01-26T18:10:34.087Z,21.97
2018-01-26T18:13:01.582Z,21.97
2018-01-26T18:15:29.845Z,23.43
2018-01-26T18:17:58.059Z,23.90
2018-01-26T18:20:25.514Z,23.00
2018-01-26T18:22:53.549Z,23.53
2018-01-26T18:25:21.827Z,23.67
2018-01-26T18:27:50.035Z,23.93
2018-01-26T18:30:17.559Z,24.17
2018-01-26T18:32:45.822Z,25.73
2018-01-26T18:35:13.263Z,24.57
2018-01-26T18:37:40.727Z,24.20
2018-01-26T18:40:08.175Z,24.40
2018-01-26T18:42:35.623Z,25.70
2018-01-26T18:45:03.075Z,24.30
2018-01-26T18:47:30.526Z,25.10
2018-01-26T18:49:58.035Z,26.30
2018-01-26T18:52:26.305Z,27.17
2018-01-26T18:54:54.523Z,24.23
2018-01-26T18:57:22.034Z,26.73
2018-01-26T18:59:50.293Z,27.83
2018-01-26T19:02:17.786Z,24.07
2018-01-26T19:04:46.047Z,23.97
2018-01-26T19:07:14.359Z,26.97
2018-01-26T19:09:42.535Z,25.77
2018-01-26T19:12:10.041Z,22.60
2018-01-26T19:14:37.538Z,21.27
2018-01-26T19:17:04.983Z,20.63
2018-01-26T19:19:32.477Z,21.30
2018-01-26T19:21:59.974Z,19.70
2018-01-26T19:24:27.458Z,20.87
2018-01-26T19:26:55.014Z,20.80
2018-01-26T19:29:22.507Z,19.60
2018-01-26T19:31:50.082Z,19.53
2018-01-26T19:34:17.677Z,21.00
2018-01-26T19:36:45.292Z,21.77
2018-01-26T19:39:12.818Z,20.40
2018-01-26T19:41:40.314Z,20.17
2018-01-26T19:44:07.806Z,21.23
2018-01-26T19:46:36.070Z,19.30
2018-01-26T19:49:04.513Z,19.77
2018-01-26T19:51:31.963Z,19.33
2018-01-26T19:53:59.481Z,19.60
2018-01-26T19:56:26.970Z,20.40
2018-01-26T19:58:54.466Z,18.50
2018-01-26T20:01:21.963Z,18.43
2018-01-26T20:04:01.339Z,17.70
2018-01-26T20:06:48.532Z,19.90
2018-01-26T20:09:16.047Z,19.20
2018-01-26T20:11:46.323Z,18.40
2018-01-26T20:14:19.496Z,17.20
2018-01-26T20:16:47.043Z,17.70
2018-01-26T20:22:08.191Z,18.50
2018-01-26T20:24:35.686Z,18.37
2018-01-26T20:27:03.173Z,19.07
2018-01-26T20:29:31.442Z,18.60
2018-01-26T20:31:59.676Z,19.80
2018-01-26T20:34:27.151Z,20.17
2018-01-26T20:36:55.430Z,19.63
2018-01-26T20:39:22.924Z,21.27
2018-01-26T20:41:51.188Z,20.20
2018-01-26T20:44:20.476Z,20.67
2018-01-26T20:46:48.757Z,19.03
2018-01-26T20:49:17.019Z,20.57
2018-01-26T20:51:44.505Z,21.70
2018-01-26T20:54:12.817Z,21.73
2018-01-26T20:56:41.165Z,22.00
2018-01-26T20:59:08.681Z,21.40
2018-01-26T21:01:36.259Z,20.57
2018-01-26T21:04:04.664Z,22.53
2018-01-26T21:06:32.140Z,22.33
2018-01-26T21:08:59.642Z,21.97
2018-01-26T21:11:27.327Z,21.73
2018-01-26T21:13:54.801Z,23.13
2018-01-26T21:16:22.462Z,21.30
2018-01-26T21:18:49.953Z,22.87
2018-01-26T21:21:17.501Z,23.80
2018-01-26T21:23:45.070Z,24.00
2018-01-26T21:26:12.638Z,23.33
2018-01-26T21:28:40.192Z,22.43
2018-01-26T21:31:07.703Z,22.77
2018-01-26T21:33:35.259Z,21.83
2018-01-26T21:36:02.789Z,23.10
2018-01-26T21:38:31.250Z,23.67
2018-01-26T21:40:59.723Z,22.27
2018-01-26T21:43:27.188Z,23.10
2018-01-26T21:45:54.685Z,24.23
2018-01-26T21:48:22.222Z,21.73
2018-01-26T21:50:49.671Z,23.20
2018-01-26T21:53:17.187Z,21.80
2018-01-26T21:55:44.647Z,22.67
2018-01-26T21:58:12.169Z,22.90
2018-01-26T22:00:40.621Z,22.77
2018-01-26T22:03:08.069Z,22.37
2018-01-26T22:05:35.579Z,21.77
2018-01-26T22:08:03.086Z,21.40
2018-01-26T22:10:30.729Z,21.50
2018-01-26T22:12:58.202Z,22.77
2018-01-26T22:15:25.714Z,22.73
2018-01-26T22:17:53.211Z,21.53
2018-01-26T22:20:20.767Z,21.80
2018-01-26T22:22:48.283Z,20.90
2018-01-26T22:25:15.786Z,22.17
2018-01-26T22:27:43.218Z,21.20
2018-01-26T22:30:10.852Z,23.00
2018-01-26T22:32:38.307Z,23.43
2018-01-26T22:35:05.822Z,23.17
2018-01-26T22:37:33.315Z,23.10
2018-01-26T22:40:01.570Z,21.10
2018-01-26T22:42:29.053Z,21.97
2018-01-26T22:44:56.546Z,20.13
2018-01-26T22:47:24.050Z,24.17
2018-01-26T22:49:52.263Z,24.10
2018-01-26T22:52:19.770Z,23.30
2018-01-26T22:54:47.269Z,23.00
2018-01-26T22:57:14.761Z,21.40
2018-01-26T22:59:42.199Z,22.10
2018-01-26T23:02:09.651Z,22.27
2018-01-26T23:04:37.098Z,22.83
2018-01-26T23:07:04.604Z,21.93
2018-01-26T23:09:32.085Z,21.93
2018-01-26T23:12:00.306Z,21.20
2018-01-26T23:14:27.779Z,23.50
2018-01-26T23:16:55.247Z,21.30
2018-01-26T23:19:22.808Z,23.67
2018-01-26T23:21:50.305Z,21.70
2018-01-26T23:24:17.746Z,23.30
2018-01-26T23:26:45.256Z,21.30
2018-01-26T23:29:12.703Z,23.13
2018-01-26T23:31:40.206Z,23.27
2018-01-26T23:34:08.468Z,22.40
2018-01-26T23:36:36.938Z,21.33
2018-01-26T23:39:05.212Z,23.20
2018-01-26T23:41:32.652Z,23.60
2018-01-26T23:44:00.101Z,24.73
2018-01-26T23:46:27.563Z,23.80
2018-01-26T23:48:55.019Z,21.97
2018-01-26T23:51:22.475Z,22.33
2018-01-26T23:53:49.924Z,22.50
2018-01-26T23:56:17.423Z,23.43
2018-01-26T23:58:45.634Z,22.83
